createdAt,value
2024-03-08T00:09:28.617Z,73.74
2024-03-08T00:24:32.197Z,74.74
2024-03-08T00:39:34.304Z,76.78
2024-03-08T00:54:39.535Z,75.26
2024-03-08T01:09:41.502Z,79.81
2024-03-08T01:24:44.051Z,84.82
2024-03-08T01:39:46.086Z,89.29
2024-03-08T01:54:48.100Z,88.11
2024-03-08T02:09:50.128Z,87.83
2024-03-08T02:24:52.259Z,88.72
2024-03-08T02:39:54.275Z,92.29
2024-03-08T02:54:56.281Z,96.05
2024-03-08T03:09:58.262Z,97.83
2024-03-08T03:25:01.918Z,100.00
2024-03-08T03:40:04.135Z,100.00
2024-03-08T03:55:06.359Z,100.00
2024-03-08T04:10:10.276Z,100.00
2024-03-08T04:25:12.259Z,100.00
2024-03-08T04:40:14.367Z,100.00
2024-03-08T04:55:16.336Z,100.00
2024-03-08T05:10:18.598Z,100.00
2024-03-08T05:25:20.676Z,100.00
2024-03-08T05:40:23.658Z,92.70
2024-03-08T05:55:26.152Z,79.00
2024-03-08T06:10:28.829Z,69.32
2024-03-08T06:25:31.246Z,60.54
2024-03-08T06:40:33.376Z,54.78
2024-03-08T06:55:35.321Z,51.37
2024-03-08T07:10:38.635Z,46.96
2024-03-08T07:25:40.867Z,44.74
2024-03-08T07:40:49.442Z,42.71
2024-03-08T07:55:51.579Z,41.81
2024-03-08T08:10:53.660Z,40.86
2024-03-08T08:25:56.931Z,39.76
2024-03-08T08:41:09.144Z,37.83
2024-03-08T08:56:14.189Z,37.77
2024-03-08T09:11:16.702Z,37.39
2024-03-08T09:26:25.701Z,36.67
2024-03-08T09:41:36.539Z,35.32
2024-03-08T09:56:47.367Z,34.67
2024-03-08T10:11:49.999Z,34.66
2024-03-08T10:27:12.519Z,33.33
2024-03-08T10:42:21.103Z,33.94
2024-03-08T10:57:25.409Z,34.22
2024-03-08T11:12:49.106Z,33.74
2024-03-08T11:28:07.256Z,33.37
2024-03-08T11:43:09.670Z,32.60
2024-03-08T11:58:13.905Z,33.28
2024-03-08T12:13:16.113Z,32.69
2024-03-08T12:28:20.980Z,36.04
2024-03-08T12:43:23.678Z,37.97
2024-03-08T12:58:27.344Z,39.39
2024-03-08T13:13:29.395Z,41.00
2024-03-08T13:28:37.820Z,40.79
2024-03-08T13:43:41.446Z,41.33
2024-03-08T13:58:45.438Z,41.73
2024-03-08T14:13:48.359Z,42.56
2024-03-08T14:28:53.301Z,42.60
2024-03-08T14:43:55.635Z,43.14
2024-03-08T14:59:01.012Z,43.34
2024-03-08T15:14:03.334Z,43.73
2024-03-08T15:29:06.400Z,44.53
2024-03-08T15:44:12.419Z,44.84
2024-03-08T15:59:14.768Z,45.68
2024-03-08T16:14:17.708Z,46.72
2024-03-08T16:29:22.082Z,47.35
2024-03-08T16:44:26.146Z,48.75
2024-03-08T16:59:28.594Z,48.97
2024-03-08T17:14:31.053Z,50.94
2024-03-08T17:30:11.870Z,52.28
2024-03-08T17:45:19.542Z,54.67
2024-03-08T18:00:39.095Z,56.94
2024-03-08T18:15:41.971Z,57.18
2024-03-08T18:30:50.275Z,57.63
2024-03-08T18:45:55.332Z,60.19
2024-03-08T19:00:57.442Z,62.55
2024-03-08T19:15:59.485Z,62.35
2024-03-08T19:31:01.475Z,65.12
2024-03-08T19:46:06.762Z,67.42
2024-03-08T20:01:10.965Z,66.70
2024-03-08T20:16:14.174Z,63.79
2024-03-08T20:31:16.158Z,68.98
2024-03-08T20:46:19.827Z,70.37
2024-03-08T21:01:22.047Z,68.51
2024-03-08T21:16:24.941Z,69.85
2024-03-08T21:31:27.080Z,68.40
2024-03-08T21:46:30.838Z,69.39
2024-03-08T22:01:33.753Z,71.51
2024-03-08T22:16:37.228Z,70.56
2024-03-08T22:31:41.811Z,71.50
2024-03-08T22:46:43.934Z,71.63
2024-03-08T23:01:46.479Z,71.34
2024-03-08T23:16:51.186Z,76.23
2024-03-08T23:31:53.208Z,73.97
2024-03-08T23:46:55.344Z,71.94
